CCA4580 VHHX-ZHEC
Flight info
| Callsign | CCA4580 |
|---|---|
| Flight time | 1h 17m |
| Altitude | 33100 |
| Route | BEKOL A461 IDUMA W41 DOPKU G471 PLT W19 NCH W105 TULMU TULMU9WA |
| Aircraft | A346/H-SDE2E3FGHIJ3J4J5M1RWXY/LB1D1 |
Departure
| Time | 2026-05-07 01:42 |
|---|---|
| Airport | Hong Kong International Airport Kai Tak (VHHX) |
Arrival
| Time | 2026-05-07 02:59 |
|---|---|
| Airport | Ezhou Huahu International Airport (ZHEC) |
| Time | Latitude | Longitude | Altitude | Speed | Heading |
|---|---|---|---|---|---|
| 2026-05-07 01:29 | 22.32600 | 114.19585 | 37 ft | 0 kts | 316° |
| 2026-05-07 01:39 | 22.32600 | 114.19584 | 37 ft | 0 kts | 316° |
| 2026-05-07 01:39 | 22.32615 | 114.19569 | 37 ft | 4 kts | 316° |
| 2026-05-07 01:40 | 22.32646 | 114.19532 | 37 ft | 7 kts | 298° |
| 2026-05-07 01:40 | 22.32626 | 114.19473 | 37 ft | 11 kts | 228° |
| 2026-05-07 01:40 | 22.32566 | 114.19406 | 37 ft | 13 kts | 222° |
| 2026-05-07 01:40 | 22.32503 | 114.19344 | 37 ft | 11 kts | 221° |
| 2026-05-07 01:41 | 22.32452 | 114.19329 | 37 ft | 7 kts | 142° |
| 2026-05-07 01:41 | 22.32372 | 114.19413 | 37 ft | 43 kts | 134° |
| 2026-05-07 01:41 | 22.31979 | 114.19863 | 37 ft | 117 kts | 132° |
| 2026-05-07 01:41 | 22.31280 | 114.20648 | 79 ft | 169 kts | 132° |
| 2026-05-07 01:42 | 22.30407 | 114.21603 | 528 ft | 184 kts | 131° |
| 2026-05-07 01:42 | 22.29523 | 114.22594 | 1304 ft | 186 kts | 131° |
| 2026-05-07 01:42 | 22.28636 | 114.23590 | 2105 ft | 188 kts | 130° |
| 2026-05-07 01:42 | 22.27736 | 114.24601 | 2866 ft | 190 kts | 130° |
| 2026-05-07 01:43 | 22.26819 | 114.25629 | 3519 ft | 194 kts | 130° |
| 2026-05-07 01:43 | 22.25848 | 114.26720 | 3892 ft | 209 kts | 131° |
| 2026-05-07 01:43 | 22.24803 | 114.27891 | 4219 ft | 226 kts | 131° |
| 2026-05-07 01:43 | 22.23667 | 114.29162 | 4521 ft | 245 kts | 131° |
| 2026-05-07 01:44 | 22.22439 | 114.30535 | 4877 ft | 266 kts | 131° |
| 2026-05-07 01:44 | 22.21111 | 114.32018 | 5437 ft | 278 kts | 132° |
| 2026-05-07 01:44 | 22.19769 | 114.33514 | 6193 ft | 282 kts | 132° |
| 2026-05-07 01:44 | 22.18403 | 114.35039 | 6963 ft | 286 kts | 132° |
| 2026-05-07 01:45 | 22.17029 | 114.36574 | 7720 ft | 290 kts | 133° |
| 2026-05-07 01:45 | 22.15618 | 114.38151 | 8491 ft | 294 kts | 133° |
| 2026-05-07 01:45 | 22.14211 | 114.39748 | 9257 ft | 298 kts | 127° |
| 2026-05-07 01:45 | 22.13077 | 114.41604 | 10030 ft | 301 kts | 115° |
| 2026-05-07 01:46 | 22.12289 | 114.43701 | 10666 ft | 309 kts | 104° |
| 2026-05-07 01:46 | 22.11890 | 114.46022 | 11082 ft | 326 kts | 92° |
| 2026-05-07 01:46 | 22.11961 | 114.48512 | 11587 ft | 339 kts | 80° |
| 2026-05-07 01:46 | 22.12553 | 114.51000 | 12367 ft | 344 kts | 67° |
| 2026-05-07 01:47 | 22.13619 | 114.53249 | 13470 ft | 336 kts | 54° |
| 2026-05-07 01:47 | 22.15052 | 114.55148 | 14569 ft | 329 kts | 43° |
| 2026-05-07 01:47 | 22.16834 | 114.56692 | 15415 ft | 329 kts | 30° |
| 2026-05-07 01:47 | 22.18870 | 114.57778 | 16167 ft | 331 kts | 18° |
| 2026-05-07 01:48 | 22.21084 | 114.58373 | 16911 ft | 334 kts | 6° |
| 2026-05-07 01:48 | 22.23391 | 114.58444 | 17650 ft | 336 kts | 354° |
| 2026-05-07 01:48 | 22.25673 | 114.57976 | 18372 ft | 339 kts | 342° |
| 2026-05-07 01:48 | 22.27854 | 114.56959 | 19084 ft | 343 kts | 329° |
| 2026-05-07 01:49 | 22.29767 | 114.55454 | 19767 ft | 347 kts | 317° |
| 2026-05-07 01:49 | 22.31352 | 114.53494 | 20435 ft | 352 kts | 304° |
| 2026-05-07 01:49 | 22.32503 | 114.51170 | 21081 ft | 357 kts | 292° |
| 2026-05-07 01:49 | 22.33173 | 114.48580 | 21692 ft | 363 kts | 283° |
| 2026-05-07 01:50 | 22.33722 | 114.45848 | 22011 ft | 376 kts | 287° |
| 2026-05-07 01:50 | 22.34598 | 114.43178 | 22262 ft | 389 kts | 296° |
| 2026-05-07 01:50 | 22.35983 | 114.40596 | 22515 ft | 402 kts | 307° |
| 2026-05-07 01:50 | 22.37856 | 114.38301 | 22760 ft | 414 kts | 316° |
| 2026-05-07 01:51 | 22.39952 | 114.36116 | 23002 ft | 427 kts | 314° |
| 2026-05-07 01:51 | 22.41870 | 114.33601 | 23233 ft | 441 kts | 306° |
| 2026-05-07 01:51 | 22.43627 | 114.30878 | 23652 ft | 448 kts | 305° |
| 2026-05-07 01:51 | 22.45371 | 114.28075 | 24217 ft | 452 kts | 304° |
| 2026-05-07 01:52 | 22.47098 | 114.25252 | 24770 ft | 456 kts | 304° |
| 2026-05-07 01:52 | 22.48853 | 114.22361 | 25306 ft | 459 kts | 304° |
| 2026-05-07 01:52 | 22.50600 | 114.19477 | 25823 ft | 463 kts | 304° |
| 2026-05-07 01:52 | 22.52433 | 114.16617 | 26320 ft | 466 kts | 309° |
| 2026-05-07 01:53 | 22.54654 | 114.14069 | 26809 ft | 468 kts | 319° |
| 2026-05-07 01:53 | 22.57237 | 114.11955 | 27289 ft | 470 kts | 328° |
| 2026-05-07 01:53 | 22.60093 | 114.10289 | 27763 ft | 472 kts | 334° |
| 2026-05-07 01:53 | 22.63059 | 114.08764 | 28241 ft | 475 kts | 336° |
| 2026-05-07 01:54 | 22.66068 | 114.07253 | 28809 ft | 475 kts | 336° |
| 2026-05-07 01:54 | 22.69038 | 114.05758 | 29485 ft | 473 kts | 336° |
| 2026-05-07 01:54 | 22.71984 | 114.04262 | 30153 ft | 471 kts | 335° |
| 2026-05-07 01:54 | 22.74915 | 114.02761 | 30781 ft | 469 kts | 335° |
| 2026-05-07 01:55 | 22.77856 | 114.01248 | 31380 ft | 468 kts | 335° |
| 2026-05-07 01:55 | 22.80812 | 113.99786 | 31901 ft | 467 kts | 339° |
| 2026-05-07 01:55 | 22.83849 | 113.98634 | 32327 ft | 468 kts | 345° |
| 2026-05-07 01:55 | 22.87036 | 113.97826 | 32722 ft | 470 kts | 351° |
| 2026-05-07 01:56 | 22.90272 | 113.97394 | 33033 ft | 472 kts | 356° |
| 2026-05-07 01:56 | 22.96811 | 113.97661 | 33073 ft | 474 kts | 9° |
| 2026-05-07 01:57 | 23.03190 | 113.99302 | 33075 ft | 475 kts | 16° |
| 2026-05-07 01:57 | 23.09536 | 114.01296 | 33075 ft | 476 kts | 17° |
| 2026-05-07 01:58 | 23.15877 | 114.03292 | 33075 ft | 476 kts | 16° |
| 2026-05-07 01:58 | 23.22204 | 114.05271 | 33075 ft | 476 kts | 16° |
| 2026-05-07 01:59 | 23.28568 | 114.07256 | 33078 ft | 476 kts | 16° |
| 2026-05-07 01:59 | 23.34906 | 114.09234 | 33083 ft | 476 kts | 16° |
| 2026-05-07 02:00 | 23.41249 | 114.11214 | 33088 ft | 476 kts | 16° |
| 2026-05-07 02:00 | 23.47613 | 114.13201 | 33092 ft | 476 kts | 16° |
| 2026-05-07 02:01 | 23.53955 | 114.15185 | 33097 ft | 476 kts | 16° |
| 2026-05-07 02:01 | 23.60297 | 114.17170 | 33101 ft | 476 kts | 16° |
| 2026-05-07 02:02 | 23.66620 | 114.19151 | 33103 ft | 476 kts | 16° |
| 2026-05-07 02:02 | 23.72985 | 114.21148 | 33103 ft | 476 kts | 16° |
| 2026-05-07 02:03 | 23.79309 | 114.23134 | 33103 ft | 476 kts | 16° |
| 2026-05-07 02:03 | 23.85653 | 114.25127 | 33103 ft | 476 kts | 16° |
| 2026-05-07 02:04 | 23.92017 | 114.27130 | 33103 ft | 476 kts | 16° |
| 2026-05-07 02:04 | 23.98330 | 114.29118 | 33103 ft | 476 kts | 16° |
| 2026-05-07 02:05 | 24.04688 | 114.31123 | 33103 ft | 476 kts | 16° |
| 2026-05-07 02:05 | 24.11032 | 114.33125 | 33103 ft | 476 kts | 16° |
| 2026-05-07 02:06 | 24.17390 | 114.35133 | 33103 ft | 476 kts | 16° |
| 2026-05-07 02:06 | 24.23717 | 114.37134 | 33103 ft | 476 kts | 16° |
| 2026-05-07 02:07 | 24.30042 | 114.39136 | 33103 ft | 476 kts | 16° |
| 2026-05-07 02:07 | 24.39570 | 114.42156 | 33103 ft | 476 kts | 16° |
| 2026-05-07 02:08 | 24.45914 | 114.44170 | 33103 ft | 476 kts | 16° |
| 2026-05-07 02:08 | 24.52262 | 114.46187 | 33103 ft | 476 kts | 16° |
| 2026-05-07 02:09 | 24.58592 | 114.48200 | 33103 ft | 476 kts | 16° |
| 2026-05-07 02:09 | 24.64937 | 114.50221 | 33103 ft | 476 kts | 16° |
| 2026-05-07 02:10 | 24.71270 | 114.52239 | 33103 ft | 476 kts | 16° |
| 2026-05-07 02:10 | 24.77586 | 114.54255 | 33103 ft | 476 kts | 16° |
| 2026-05-07 02:11 | 24.83918 | 114.56278 | 33103 ft | 476 kts | 16° |
| 2026-05-07 02:11 | 24.90265 | 114.58307 | 33103 ft | 476 kts | 16° |
| 2026-05-07 02:12 | 24.96606 | 114.60336 | 33103 ft | 476 kts | 16° |
| 2026-05-07 02:12 | 25.03042 | 114.62405 | 33103 ft | 490 kts | 15° |
| 2026-05-07 02:13 | 25.09612 | 114.64516 | 33101 ft | 497 kts | 15° |
| 2026-05-07 02:13 | 25.16283 | 114.66653 | 33102 ft | 501 kts | 15° |
| 2026-05-07 02:14 | 25.22956 | 114.68796 | 33103 ft | 502 kts | 15° |
| 2026-05-07 02:14 | 25.29627 | 114.70943 | 33103 ft | 502 kts | 15° |
| 2026-05-07 02:15 | 25.36325 | 114.73101 | 33103 ft | 502 kts | 15° |
| 2026-05-07 02:15 | 25.43020 | 114.75262 | 33104 ft | 502 kts | 15° |
| 2026-05-07 02:16 | 25.49682 | 114.77414 | 33106 ft | 502 kts | 15° |
| 2026-05-07 02:16 | 25.56389 | 114.79583 | 33108 ft | 502 kts | 15° |
| 2026-05-07 02:17 | 25.63102 | 114.81757 | 33111 ft | 502 kts | 15° |
| 2026-05-07 02:17 | 25.69775 | 114.83922 | 33113 ft | 502 kts | 15° |
| 2026-05-07 02:18 | 25.76499 | 114.86106 | 33115 ft | 502 kts | 15° |
| 2026-05-07 02:18 | 25.83152 | 114.88412 | 33117 ft | 502 kts | 18° |
| 2026-05-07 02:19 | 25.89755 | 114.90989 | 33118 ft | 502 kts | 19° |
| 2026-05-07 02:19 | 25.96304 | 114.93575 | 33118 ft | 502 kts | 19° |
| 2026-05-07 02:20 | 26.02911 | 114.96184 | 33114 ft | 502 kts | 19° |
| 2026-05-07 02:20 | 26.09461 | 114.98771 | 33104 ft | 501 kts | 19° |
| 2026-05-07 02:21 | 26.16052 | 115.01375 | 33093 ft | 499 kts | 19° |
| 2026-05-07 02:21 | 26.22569 | 115.03952 | 33087 ft | 497 kts | 19° |
| 2026-05-07 02:22 | 26.29099 | 115.06537 | 33082 ft | 496 kts | 19° |
| 2026-05-07 02:22 | 26.35562 | 115.09098 | 33079 ft | 494 kts | 19° |
| 2026-05-07 02:23 | 26.42000 | 115.11653 | 33077 ft | 493 kts | 19° |
| 2026-05-07 02:23 | 26.48438 | 115.14212 | 33077 ft | 493 kts | 19° |
| 2026-05-07 02:24 | 26.54889 | 115.16779 | 33076 ft | 493 kts | 20° |
| 2026-05-07 02:24 | 26.61344 | 115.19352 | 33076 ft | 494 kts | 20° |
| 2026-05-07 02:25 | 26.67790 | 115.21926 | 33075 ft | 494 kts | 20° |
| 2026-05-07 02:25 | 26.74213 | 115.24495 | 33075 ft | 494 kts | 20° |
| 2026-05-07 02:26 | 26.80683 | 115.27082 | 33074 ft | 494 kts | 20° |
| 2026-05-07 02:26 | 26.87136 | 115.29645 | 33075 ft | 494 kts | 20° |
| 2026-05-07 02:27 | 26.93604 | 115.32212 | 33072 ft | 497 kts | 20° |
| 2026-05-07 02:27 | 27.00146 | 115.34825 | 33071 ft | 504 kts | 20° |
| 2026-05-07 02:28 | 27.06800 | 115.37494 | 33075 ft | 509 kts | 19° |
| 2026-05-07 02:28 | 27.13441 | 115.40144 | 33075 ft | 510 kts | 19° |
| 2026-05-07 02:29 | 27.20128 | 115.42815 | 33076 ft | 510 kts | 19° |
| 2026-05-07 02:29 | 27.26796 | 115.45483 | 33077 ft | 510 kts | 19° |
| 2026-05-07 02:30 | 27.33439 | 115.48148 | 33076 ft | 510 kts | 19° |
| 2026-05-07 02:30 | 27.40068 | 115.50813 | 33076 ft | 510 kts | 19° |
| 2026-05-07 02:31 | 27.46729 | 115.53496 | 33077 ft | 510 kts | 19° |
| 2026-05-07 02:31 | 27.53385 | 115.56175 | 33077 ft | 510 kts | 19° |
| 2026-05-07 02:32 | 27.60096 | 115.58672 | 33076 ft | 510 kts | 14° |
| 2026-05-07 02:32 | 27.66989 | 115.60396 | 33077 ft | 510 kts | 11° |
| 2026-05-07 02:33 | 27.73946 | 115.62065 | 33076 ft | 510 kts | 12° |
| 2026-05-07 02:33 | 27.80828 | 115.63770 | 33076 ft | 510 kts | 12° |
| 2026-05-07 02:34 | 27.87758 | 115.65518 | 33076 ft | 510 kts | 12° |
| 2026-05-07 02:34 | 27.94653 | 115.67268 | 33080 ft | 510 kts | 13° |
| 2026-05-07 02:35 | 28.01574 | 115.69029 | 33088 ft | 510 kts | 13° |
| 2026-05-07 02:35 | 28.08453 | 115.70780 | 33096 ft | 509 kts | 13° |
| 2026-05-07 02:36 | 28.15374 | 115.72546 | 33100 ft | 509 kts | 13° |
| 2026-05-07 02:36 | 28.22270 | 115.74306 | 33102 ft | 509 kts | 13° |
| 2026-05-07 02:37 | 28.29169 | 115.76069 | 33103 ft | 509 kts | 13° |
| 2026-05-07 02:37 | 28.36032 | 115.77825 | 33103 ft | 509 kts | 13° |
| 2026-05-07 02:38 | 28.42929 | 115.79593 | 33103 ft | 509 kts | 13° |
| 2026-05-07 02:38 | 28.49830 | 115.81364 | 33103 ft | 509 kts | 13° |
| 2026-05-07 02:39 | 28.56716 | 115.83133 | 33103 ft | 509 kts | 13° |
| 2026-05-07 02:39 | 28.63625 | 115.84913 | 33103 ft | 509 kts | 13° |
| 2026-05-07 02:40 | 28.70523 | 115.86693 | 33103 ft | 509 kts | 13° |
| 2026-05-07 02:40 | 28.77389 | 115.88457 | 33102 ft | 509 kts | 12° |
| 2026-05-07 02:41 | 28.84422 | 115.89475 | 33103 ft | 509 kts | 2° |
| 2026-05-07 02:41 | 28.91463 | 115.89202 | 33103 ft | 508 kts | 353° |
| 2026-05-07 02:42 | 28.98359 | 115.87669 | 33102 ft | 508 kts | 343° |
| 2026-05-07 02:42 | 29.05048 | 115.85252 | 32988 ft | 503 kts | 340° |
| 2026-05-07 02:43 | 29.08324 | 115.84006 | 32585 ft | 496 kts | 339° |
| 2026-05-07 02:43 | 29.11586 | 115.82783 | 32001 ft | 491 kts | 340° |
| 2026-05-07 02:43 | 29.14839 | 115.81628 | 31478 ft | 485 kts | 340° |
| 2026-05-07 02:43 | 29.18020 | 115.80521 | 30994 ft | 479 kts | 340° |
| 2026-05-07 02:44 | 29.21203 | 115.79417 | 30499 ft | 474 kts | 340° |
| 2026-05-07 02:44 | 29.24328 | 115.78332 | 30001 ft | 469 kts | 341° |
| 2026-05-07 02:44 | 29.27443 | 115.77244 | 29520 ft | 464 kts | 341° |
| 2026-05-07 02:44 | 29.30502 | 115.76173 | 29044 ft | 460 kts | 341° |
| 2026-05-07 02:45 | 29.33527 | 115.75056 | 28552 ft | 455 kts | 339° |
| 2026-05-07 02:45 | 29.36438 | 115.73830 | 28064 ft | 450 kts | 338° |
| 2026-05-07 02:45 | 29.39365 | 115.72555 | 27519 ft | 448 kts | 337° |
| 2026-05-07 02:45 | 29.42267 | 115.71281 | 26622 ft | 453 kts | 338° |
| 2026-05-07 02:46 | 29.45211 | 115.69986 | 25838 ft | 454 kts | 338° |
| 2026-05-07 02:46 | 29.48138 | 115.68703 | 25290 ft | 450 kts | 338° |
| 2026-05-07 02:46 | 29.51050 | 115.67431 | 24769 ft | 445 kts | 338° |
| 2026-05-07 02:46 | 29.53911 | 115.66180 | 24224 ft | 441 kts | 338° |
| 2026-05-07 02:47 | 29.56786 | 115.64922 | 23666 ft | 438 kts | 339° |
| 2026-05-07 02:47 | 29.59596 | 115.63692 | 23114 ft | 434 kts | 339° |
| 2026-05-07 02:47 | 29.62394 | 115.62466 | 22555 ft | 431 kts | 339° |
| 2026-05-07 02:47 | 29.65175 | 115.61248 | 21999 ft | 427 kts | 339° |
| 2026-05-07 02:48 | 29.67932 | 115.60042 | 21429 ft | 424 kts | 339° |
| 2026-05-07 02:48 | 29.70678 | 115.58840 | 20829 ft | 422 kts | 339° |
| 2026-05-07 02:48 | 29.73411 | 115.57644 | 20323 ft | 418 kts | 339° |
| 2026-05-07 02:48 | 29.76119 | 115.56458 | 19858 ft | 413 kts | 340° |
| 2026-05-07 02:49 | 29.78765 | 115.55298 | 19421 ft | 408 kts | 340° |
| 2026-05-07 02:49 | 29.81379 | 115.54153 | 19001 ft | 403 kts | 340° |
| 2026-05-07 02:49 | 29.84000 | 115.53009 | 18579 ft | 398 kts | 340° |
| 2026-05-07 02:49 | 29.86562 | 115.51891 | 18163 ft | 394 kts | 340° |
| 2026-05-07 02:50 | 29.89119 | 115.50775 | 17746 ft | 390 kts | 340° |
| 2026-05-07 02:50 | 29.91618 | 115.49685 | 17334 ft | 387 kts | 340° |
| 2026-05-07 02:50 | 29.94149 | 115.48581 | 16913 ft | 384 kts | 340° |
| 2026-05-07 02:50 | 29.96613 | 115.47491 | 16487 ft | 382 kts | 338° |
| 2026-05-07 02:51 | 29.98857 | 115.45857 | 15669 ft | 390 kts | 317° |
| 2026-05-07 02:51 | 30.00390 | 115.43248 | 14787 ft | 400 kts | 294° |
| 2026-05-07 02:51 | 30.01255 | 115.40196 | 14268 ft | 397 kts | 288° |
| 2026-05-07 02:51 | 30.02043 | 115.37212 | 13633 ft | 391 kts | 288° |
| 2026-05-07 02:52 | 30.02858 | 115.34243 | 12473 ft | 387 kts | 289° |
| 2026-05-07 02:52 | 30.03684 | 115.31353 | 11334 ft | 382 kts | 289° |
| 2026-05-07 02:52 | 30.04523 | 115.28484 | 10275 ft | 374 kts | 289° |
| 2026-05-07 02:52 | 30.05348 | 115.25698 | 9502 ft | 360 kts | 290° |
| 2026-05-07 02:53 | 30.06145 | 115.23021 | 8751 ft | 347 kts | 290° |
| 2026-05-07 02:53 | 30.06923 | 115.20416 | 8019 ft | 336 kts | 290° |
| 2026-05-07 02:53 | 30.07665 | 115.17930 | 7326 ft | 326 kts | 290° |
| 2026-05-07 02:53 | 30.08398 | 115.15476 | 6644 ft | 317 kts | 290° |
| 2026-05-07 02:54 | 30.09109 | 115.13092 | 5979 ft | 309 kts | 290° |
| 2026-05-07 02:54 | 30.09748 | 115.10736 | 5328 ft | 302 kts | 285° |
| 2026-05-07 02:54 | 30.10163 | 115.08415 | 4706 ft | 295 kts | 281° |
| 2026-05-07 02:54 | 30.10518 | 115.06094 | 4127 ft | 289 kts | 281° |
| 2026-05-07 02:55 | 30.11038 | 115.03913 | 3836 ft | 281 kts | 299° |
| 2026-05-07 02:55 | 30.12287 | 115.02231 | 3547 ft | 274 kts | 326° |
| 2026-05-07 02:55 | 30.13998 | 115.01386 | 3270 ft | 268 kts | 348° |
| 2026-05-07 02:55 | 30.15822 | 115.01232 | 3144 ft | 257 kts | 4° |
| 2026-05-07 02:56 | 30.17555 | 115.01495 | 2968 ft | 251 kts | 10° |
| 2026-05-07 02:56 | 30.19258 | 115.01882 | 2608 ft | 246 kts | 11° |
| 2026-05-07 02:56 | 30.20889 | 115.02249 | 2295 ft | 235 kts | 10° |
| 2026-05-07 02:56 | 30.22467 | 115.02577 | 2014 ft | 224 kts | 9° |
| 2026-05-07 02:57 | 30.23918 | 115.02868 | 1745 ft | 202 kts | 9° |
| 2026-05-07 02:57 | 30.25234 | 115.03131 | 1474 ft | 185 kts | 9° |
| 2026-05-07 02:57 | 30.26445 | 115.03377 | 1236 ft | 168 kts | 9° |
| 2026-05-07 02:57 | 30.27537 | 115.03597 | 1026 ft | 154 kts | 9° |
| 2026-05-07 02:58 | 30.28584 | 115.03811 | 832 ft | 151 kts | 9° |
| 2026-05-07 02:58 | 30.29611 | 115.04010 | 645 ft | 150 kts | 7° |
| 2026-05-07 02:58 | 30.30637 | 115.04217 | 445 ft | 150 kts | 10° |
| 2026-05-07 02:58 | 30.31668 | 115.04436 | 244 ft | 149 kts | 9° |
| 2026-05-07 02:59 | 30.32663 | 115.04636 | 96 ft | 135 kts | 8° |
| 2026-05-07 02:59 | 30.33406 | 115.04785 | 95 ft | 82 kts | 11° |
| 2026-05-07 02:59 | 30.33792 | 115.04867 | 95 ft | 37 kts | 9° |
| 2026-05-07 02:59 | 30.34024 | 115.04872 | 95 ft | 28 kts | 341° |
| 2026-05-07 03:00 | 30.34144 | 115.04821 | 95 ft | 12 kts | 330° |
| 2026-05-07 03:00 | 30.34165 | 115.04758 | 95 ft | 6 kts | 237° |
| 2026-05-07 03:00 | 30.34138 | 115.04735 | 95 ft | 5 kts | 203° |
| 2026-05-07 03:00 | 30.34090 | 115.04720 | 95 ft | 9 kts | 191° |
| 2026-05-07 03:01 | 30.34013 | 115.04703 | 95 ft | 12 kts | 189° |
| 2026-05-07 03:01 | 30.33918 | 115.04687 | 95 ft | 15 kts | 189° |
| 2026-05-07 03:01 | 30.33901 | 115.04684 | 95 ft | 15 kts | 189° |
| 2026-05-07 03:01 | 30.33793 | 115.04662 | 95 ft | 16 kts | 190° |
| 2026-05-07 03:02 | 30.33678 | 115.04636 | 95 ft | 14 kts | 194° |
| 2026-05-07 03:02 | 30.33569 | 115.04614 | 95 ft | 16 kts | 187° |
| 2026-05-07 03:02 | 30.33447 | 115.04594 | 95 ft | 18 kts | 189° |
| 2026-05-07 03:02 | 30.33338 | 115.04571 | 95 ft | 13 kts | 190° |
| 2026-05-07 03:03 | 30.33272 | 115.04557 | 95 ft | 4 kts | 190° |
| 2026-05-07 03:03 | 30.33245 | 115.04539 | 95 ft | 5 kts | 230° |
| 2026-05-07 03:03 | 30.33235 | 115.04469 | 95 ft | 10 kts | 275° |
| 2026-05-07 03:03 | 30.33248 | 115.04373 | 95 ft | 13 kts | 279° |
| 2026-05-07 03:04 | 30.33258 | 115.04269 | 95 ft | 9 kts | 250° |
| 2026-05-07 03:04 | 30.33193 | 115.04230 | 95 ft | 12 kts | 192° |
| 2026-05-07 03:04 | 30.33125 | 115.04215 | 95 ft | 4 kts | 190° |
| 2026-05-07 03:04 | 30.33118 | 115.04214 | 95 ft | 0 kts | 190° |